Time;durP1;ratioP1;P1;durP2;ratioP2;P2;SDS_P1;SDS_P2;PMS_P1;PMS_P2;Temp;Humidity;BMP_temperature;BMP_pressure;BME280_temperature;BME280_humidity;BME280_pressure;Samples;Min_cycle;Max_cycle;Signal;HPM_P1;HPM_P2
2022/11/14 00:02:18;;;;;;;;;;;;;;;6.55;97.27;100651.84;1708053;82;20244;-80
2022/11/14 00:05:05;;;;;;;;;;;;;;;6.53;97.16;100657.52;1711434;82;20602;-85
2022/11/14 00:07:51;;;;;;;;;;;;;;;6.51;97.11;100651.42;1711648;82;20228;-83
2022/11/14 00:10:36;;;;;;;;;;;;;;;6.52;97.04;100655.77;1710387;82;21266;-82
2022/11/14 00:13:22;;;;;;;;;;;;;;;6.49;96.78;100655.79;1702772;82;20189;-83
2022/11/14 00:16:08;;;;;;;;;;;;;;;6.47;96.65;100658.81;1695318;82;20231;-84
2022/11/14 00:18:52;;;;;;;;;;;;;;;6.47;96.52;100661.42;1708230;82;20219;-83
2022/11/14 00:21:37;;;;;;;;;;;;;;;6.46;96.37;100664.93;1710885;82;20263;-85
2022/11/14 00:24:22;;;;;;;;;;;;;;;6.44;96.23;100665.34;1692972;82;21781;-82
2022/11/14 00:27:08;;;;;;;;;;;;;;;6.39;96.02;100658.83;1683034;84;20179;-80
2022/11/14 00:29:54;;;;;;;;;;;;;;;6.37;95.83;100659.27;1706680;82;20216;-80
2022/11/14 00:32:39;;;;;;;;;;;;;;;6.33;95.63;100658.36;1711169;82;20495;-83
2022/11/14 00:35:24;;;;;;;;;;;;;;;6.27;95.58;100655.77;1711224;82;20165;-83
2022/11/14 00:38:09;;;;;;;;;;;;;;;6.20;95.30;100648.77;1711736;82;21888;-83
2022/11/14 00:40:53;;;;;;;;;;;;;;;6.13;95.31;100654.86;1700638;82;20513;-82
2022/11/14 00:43:38;;;;;;;;;;;;;;;6.09;95.10;100660.95;1705691;82;20240;-85
2022/11/14 00:46:23;;;;;;;;;;;;;;;6.05;94.87;100663.11;1691245;82;20247;-86
2022/11/14 00:49:08;;;;;;;;;;;;;;;5.97;94.79;100667.03;1693769;82;21144;-85
2022/11/14 00:51:53;;;;;;;;;;;;;;;5.90;95.15;100665.20;1695087;82;21177;-82
2022/11/14 00:54:38;;;;;;;;;;;;;;;5.83;95.47;100664.31;1711215;82;20218;-82
2022/11/14 00:57:23;;;;;;;;;;;;;;;5.75;96.02;100663.45;1710241;82;20216;-82
2022/11/14 01:00:08;;;;;;;;;;;;;;;5.71;96.33;100668.20;1710936;82;20406;-81
2022/11/14 01:02:57;;;;;;;;;;;;;;;5.69;96.61;100666.89;1692154;82;20202;-81
2022/11/14 01:05:44;;;;;;;;;;;;;;;5.65;96.84;100666.86;1689587;82;21202;-81
2022/11/14 01:08:30;;;;;;;;;;;;;;;5.63;97.23;100668.60;1696550;82;20247;-81
2022/11/14 01:11:17;;;;;;;;;;;;;;;5.59;97.40;100667.72;1700817;82;20579;-85
2022/11/14 01:14:07;;;;;;;;;;;;;;;5.55;97.50;100677.28;1692432;82;20226;-85
2022/11/14 01:16:53;;;;;;;;;;;;;;;5.50;97.68;100669.86;1699754;82;20983;-84
2022/11/14 01:19:38;;;;;;;;;;;;;;;5.48;97.96;100673.31;1711021;82;21611;-83
2022/11/14 01:22:23;;;;;;;;;;;;;;;5.47;98.11;100672.89;1711666;82;20243;-83
2022/11/14 01:25:07;;;;;;;;;;;;;;;5.47;97.85;100674.20;1711781;82;20239;-81
2022/11/14 01:27:52;;;;;;;;;;;;;;;5.46;97.55;100672.00;1710760;82;20208;-81
2022/11/14 01:30:37;;;;;;;;;;;;;;;5.46;97.16;100669.39;1702900;82;20456;-82
2022/11/14 01:33:24;;;;;;;;;;;;;;;5.43;96.74;100666.80;1711344;82;20153;-82
2022/11/14 01:36:10;;;;;;;;;;;;;;;5.42;96.62;100670.25;1693436;82;20218;-80
2022/11/14 01:38:55;;;;;;;;;;;;;;;5.41;95.95;100673.72;1706212;82;20238;-82
2022/11/14 01:41:40;;;;;;;;;;;;;;;5.36;95.30;100668.91;1681880;85;20214;-81
2022/11/14 01:44:44;;;;;;;;;;;;;;;5.32;95.00;100674.99;1703887;83;20220;-83
2022/11/14 01:47:30;;;;;;;;;;;;;;;5.25;94.47;100675.83;1711766;83;21237;-81
2022/11/14 01:50:15;;;;;;;;;;;;;;;5.19;93.86;100675.34;1711619;83;20259;-80
2022/11/14 01:53:00;;;;;;;;;;;;;;;5.13;93.58;100672.27;1711795;83;20248;-81
2022/11/14 01:55:45;;;;;;;;;;;;;;;5.05;93.23;100679.17;1712086;83;20533;-82
2022/11/14 01:58:30;;;;;;;;;;;;;;;4.97;93.01;100680.86;1711932;83;20201;-82
2022/11/14 02:01:14;;;;;;;;;;;;;;;4.91;92.78;100681.70;1711634;83;21151;-84
2022/11/14 02:03:59;;;;;;;;;;;;;;;4.84;92.71;100674.26;1711369;83;20322;-82
2022/11/14 02:06:44;;;;;;;;;;;;;;;4.76;92.68;100681.14;1711565;83;20255;-84
2022/11/14 02:09:31;;;;;;;;;;;;;;;4.70;92.65;100681.08;1711035;82;20212;-81
2022/11/14 02:12:16;;;;;;;;;;;;;;;4.66;92.57;100678.02;1711740;83;20225;-82
2022/11/14 02:15:01;;;;;;;;;;;;;;;4.60;92.54;100671.45;1683831;82;21103;-85
2022/11/14 02:17:47;;;;;;;;;;;;;;;4.53;92.43;100672.27;1687653;82;20253;-85
2022/11/14 02:20:34;;;;;;;;;;;;;;;4.45;92.31;100674.38;1704153;82;20204;-86
2022/11/14 02:23:26;;;;;;;;;;;;;;;4.39;92.11;100669.55;1709126;81;20197;-79
2022/11/14 02:26:11;;;;;;;;;;;;;;;4.32;91.95;100668.61;1688199;82;20152;-78
2022/11/14 02:28:56;;;;;;;;;;;;;;;4.24;91.56;100674.17;1704800;82;21121;-82
2022/11/14 02:31:41;;;;;;;;;;;;;;;4.17;91.87;100668.44;1691686;82;20247;-83
2022/11/14 02:34:26;;;;;;;;;;;;;;;4.12;91.92;100678.83;1699709;82;20299;-85
2022/11/14 02:37:11;;;;;;;;;;;;;;;4.08;91.97;100680.53;1711679;83;20196;-82
2022/11/14 02:39:56;;;;;;;;;;;;;;;4.03;92.19;100679.58;1702854;82;20202;-80
2022/11/14 02:42:41;;;;;;;;;;;;;;;3.99;92.30;100681.72;1695939;82;21737;-83
2022/11/14 02:45:25;;;;;;;;;;;;;;;3.95;92.42;100679.95;1703617;82;20206;-82
2022/11/14 02:48:10;;;;;;;;;;;;;;;3.92;92.54;100685.13;1725560;81;20982;-83
2022/11/14 02:50:55;;;;;;;;;;;;;;;3.89;92.72;100688.98;1741205;81;20203;-85
2022/11/14 02:53:40;;;;;;;;;;;;;;;3.85;92.76;100684.58;1740675;81;20246;-84
2022/11/14 02:56:25;;;;;;;;;;;;;;;3.81;92.80;100690.63;1740039;81;21126;-83
2022/11/14 02:59:09;;;;;;;;;;;;;;;3.78;92.69;100684.08;1722652;81;20136;-83
2022/11/14 03:01:55;;;;;;;;;;;;;;;3.74;92.59;100688.81;1712116;81;20228;-80
2022/11/14 03:04:41;;;;;;;;;;;;;;;3.69;92.83;100680.94;1697977;81;20216;-81
2022/11/14 03:07:26;;;;;;;;;;;;;;;3.63;93.06;100681.75;1714052;81;20202;-82
2022/11/14 03:10:12;;;;;;;;;;;;;;;3.60;93.00;100680.41;1741720;81;21503;-81
2022/11/14 03:12:57;;;;;;;;;;;;;;;3.58;92.96;100680.82;1740253;81;20351;-82
2022/11/14 03:15:42;;;;;;;;;;;;;;;3.53;92.89;100677.25;1742047;82;20203;-81
2022/11/14 03:18:27;;;;;;;;;;;;;;;3.46;92.93;100675.03;1741614;81;20222;-82
2022/11/14 03:21:17;;;;;;;;;;;;;;;3.43;93.16;100679.30;1741897;82;20446;-82
2022/11/14 03:24:03;;;;;;;;;;;;;;;3.42;93.55;100681.03;1741527;81;21036;-82
2022/11/14 03:26:47;;;;;;;;;;;;;;;3.43;93.91;100687.09;1732771;81;20255;-84
2022/11/14 03:29:33;;;;;;;;;;;;;;;3.42;94.29;100686.67;1720545;81;20183;-83
2022/11/14 03:32:18;;;;;;;;;;;;;;;3.40;94.62;100696.20;1723006;81;20234;-82
2022/11/14 03:35:04;;;;;;;;;;;;;;;3.37;94.50;100690.94;1698039;81;20184;-85
2022/11/14 03:37:48;;;;;;;;;;;;;;;3.31;94.39;100690.00;1707806;81;21823;-84
2022/11/14 03:40:33;;;;;;;;;;;;;;;3.25;94.46;100695.11;1737419;81;20163;-85
2022/11/14 03:43:18;;;;;;;;;;;;;;;3.20;94.41;100690.27;1705986;81;20172;-81
2022/11/14 03:46:04;;;;;;;;;;;;;;;3.17;94.28;100687.63;1710032;81;20209;-81
2022/11/14 03:48:49;;;;;;;;;;;;;;;3.14;94.05;100691.47;1726452;81;20155;-85
2022/11/14 03:51:34;;;;;;;;;;;;;;;3.08;93.88;100690.11;1741094;81;21146;-84
2022/11/14 03:54:19;;;;;;;;;;;;;;;3.03;94.05;100686.56;1741539;81;20198;-83
2022/11/14 03:57:04;;;;;;;;;;;;;;;3.02;94.15;100692.60;1739820;81;20513;-83
2022/11/14 03:59:48;;;;;;;;;;;;;;;2.97;94.08;100688.19;1741475;81;20258;-83
2022/11/14 04:02:33;;;;;;;;;;;;;;;2.92;94.11;100692.45;1741742;81;20183;-82
2022/11/14 04:05:17;;;;;;;;;;;;;;;2.88;94.27;100691.10;1709789;81;21124;-81
2022/11/14 04:08:05;;;;;;;;;;;;;;;2.85;94.22;100684.11;1712242;81;20516;-81
2022/11/14 04:10:51;;;;;;;;;;;;;;;2.83;94.05;100691.02;1742073;82;20529;-81
2022/11/14 04:13:36;;;;;;;;;;;;;;;2.81;94.28;100692.73;1741133;81;20144;-82
2022/11/14 04:16:22;;;;;;;;;;;;;;;2.78;94.36;100692.23;1741053;82;20132;-83
2022/11/14 04:19:07;;;;;;;;;;;;;;;2.76;94.37;100690.05;1739071;81;21234;-81
2022/11/14 04:21:52;;;;;;;;;;;;;;;2.75;94.36;100693.92;1742185;82;20207;-80
2022/11/14 04:24:36;;;;;;;;;;;;;;;2.72;94.55;100696.06;1740886;81;21018;-81
2022/11/14 04:27:21;;;;;;;;;;;;;;;2.69;94.81;100693.41;1724624;81;20187;-82
2022/11/14 04:30:07;;;;;;;;;;;;;;;2.69;95.03;100695.11;1721786;81;20178;-83
2022/11/14 04:32:52;;;;;;;;;;;;;;;2.68;94.91;100694.67;1739240;81;22240;-82
2022/11/14 04:35:37;;;;;;;;;;;;;;;2.64;94.98;100703.25;1741152;81;20165;-82
2022/11/14 04:38:22;;;;;;;;;;;;;;;2.59;95.25;100701.90;1740114;81;20187;-83
2022/11/14 04:41:07;;;;;;;;;;;;;;;2.58;95.46;100701.00;1708690;81;20180;-84
2022/11/14 04:43:52;;;;;;;;;;;;;;;2.57;95.38;100703.17;1738726;81;20242;-85
2022/11/14 04:46:36;;;;;;;;;;;;;;;2.54;95.39;100703.11;1716309;81;21157;-84
2022/11/14 04:49:22;;;;;;;;;;;;;;;2.52;95.63;100710.02;1709883;82;20263;-84
2022/11/14 04:52:06;;;;;;;;;;;;;;;2.53;95.94;100715.64;1711285;82;20235;-84
2022/11/14 04:54:51;;;;;;;;;;;;;;;2.55;95.87;100712.63;1710658;82;20216;-83
2022/11/14 04:57:35;;;;;;;;;;;;;;;2.53;95.41;100716.94;1711007;82;20240;-82
2022/11/14 05:00:20;;;;;;;;;;;;;;;2.49;95.13;100715.15;1708035;82;21166;-83
2022/11/14 05:03:05;;;;;;;;;;;;;;;2.44;94.79;100723.28;1698892;83;20624;-82
2022/11/14 05:05:50;;;;;;;;;;;;;;;2.41;94.81;100729.72;1711579;83;20196;-82
2022/11/14 05:08:34;;;;;;;;;;;;;;;2.40;95.13;100729.26;1696094;82;20175;-82
2022/11/14 05:11:20;;;;;;;;;;;;;;;2.37;95.23;100736.59;1707344;82;20239;-78
2022/11/14 05:14:06;;;;;;;;;;;;;;;2.35;95.11;100737.39;1705047;82;20648;-81
2022/11/14 05:16:52;;;;;;;;;;;;;;;2.31;95.35;100736.89;1711047;82;20161;-82
2022/11/14 05:19:37;;;;;;;;;;;;;;;2.30;95.70;100739.89;1711160;82;20656;-82
2022/11/14 05:22:21;;;;;;;;;;;;;;;2.28;96.11;100747.22;1711842;83;20251;-81
2022/11/14 05:25:07;;;;;;;;;;;;;;;2.24;97.12;100743.70;1711124;82;20220;-81
2022/11/14 05:27:53;;;;;;;;;;;;;;;2.22;97.89;100739.77;1709028;83;20664;-82
2022/11/14 05:30:38;;;;;;;;;;;;;;;2.19;98.15;100735.81;1711052;82;20243;-82
2022/11/14 05:33:23;;;;;;;;;;;;;;;2.16;98.25;100735.74;1712115;83;20231;-83
2022/11/14 05:36:10;;;;;;;;;;;;;;;2.14;98.42;100737.45;1711347;82;20274;-83
2022/11/14 05:38:56;;;;;;;;;;;;;;;2.11;98.59;100734.78;1708716;83;20224;-84
2022/11/14 05:41:41;;;;;;;;;;;;;;;2.12;99.13;100741.73;1712011;83;21137;-86
2022/11/14 05:44:26;;;;;;;;;;;;;;;2.11;99.52;100742.57;1711207;82;20279;-86
2022/11/14 05:47:11;;;;;;;;;;;;;;;2.11;100.00;100745.60;1708146;82;20463;-82
2022/11/14 05:49:56;;;;;;;;;;;;;;;2.10;100.00;100746.03;1711373;83;20294;-85
2022/11/14 05:52:40;;;;;;;;;;;;;;;2.11;100.00;100751.66;1712110;83;20275;-88
2022/11/14 05:55:25;;;;;;;;;;;;;;;2.11;100.00;100746.90;1711546;82;21544;-83
2022/11/14 05:58:10;;;;;;;;;;;;;;;2.12;100.00;100749.53;1700660;82;20616;-83
2022/11/14 06:01:10;;;;;;;;;;;;;;;2.13;100.00;100752.55;1711071;82;20215;-83
2022/11/14 06:03:55;;;;;;;;;;;;;;;2.16;100.00;100750.45;1710632;83;20201;-83
2022/11/14 06:06:40;;;;;;;;;;;;;;;2.18;100.00;100759.14;1711194;82;20172;-84
2022/11/14 06:09:24;;;;;;;;;;;;;;;2.20;100.00;100761.34;1710858;82;21116;-84
2022/11/14 06:12:10;;;;;;;;;;;;;;;2.22;100.00;100756.65;1710991;82;20231;-81
2022/11/14 06:14:54;;;;;;;;;;;;;;;2.25;100.00;100754.95;1711087;82;20204;-83
2022/11/14 06:17:38;;;;;;;;;;;;;;;2.20;100.00;100757.45;1683423;85;20242;-83
2022/11/14 06:20:25;;;;;;;;;;;;;;;2.10;100.00;100759.02;1682854;84;20617;-82
2022/11/14 06:23:10;;;;;;;;;;;;;;;2.06;100.00;100758.91;1683186;84;21905;-82
2022/11/14 06:25:59;;;;;;;;;;;;;;;2.00;100.00;100759.64;1703984;82;20169;-85
2022/11/14 06:28:44;;;;;;;;;;;;;;;1.97;100.00;100763.50;1711454;83;20185;-84
2022/11/14 06:31:28;;;;;;;;;;;;;;;1.98;100.00;100763.50;1711981;83;20224;-83
2022/11/14 06:34:13;;;;;;;;;;;;;;;2.02;100.00;100765.34;1712026;83;20263;-81
2022/11/14 06:36:58;;;;;;;;;;;;;;;2.07;100.00;100764.14;1709737;82;22249;-82
2022/11/14 06:39:45;;;;;;;;;;;;;;;2.11;100.00;100767.67;1711215;82;20525;-83
2022/11/14 06:42:30;;;;;;;;;;;;;;;2.14;100.00;100769.03;1711782;83;20238;-85
2022/11/14 06:45:15;;;;;;;;;;;;;;;2.19;100.00;100769.56;1708982;82;20158;-78
2022/11/14 06:48:00;;;;;;;;;;;;;;;2.22;100.00;100767.03;1721256;81;20514;-80
2022/11/14 06:50:51;;;;;;;;;;;;;;;2.26;100.00;100766.66;1745304;79;20819;-81
2022/11/14 06:53:36;;;;;;;;;;;;;;;2.32;100.00;100767.19;1741806;81;20230;-79
2022/11/14 06:56:21;;;;;;;;;;;;;;;2.40;100.00;100759.13;1739564;82;20454;-83
2022/11/14 06:59:06;;;;;;;;;;;;;;;2.46;100.00;100760.55;1741715;82;20351;-79
2022/11/14 07:01:51;;;;;;;;;;;;;;;2.54;100.00;100764.57;1741421;81;20246;-83
2022/11/14 07:04:36;;;;;;;;;;;;;;;2.63;100.00;100764.75;1740939;81;21515;-86
2022/11/14 07:07:21;;;;;;;;;;;;;;;2.74;100.00;100768.82;1734635;81;20451;-87
2022/11/14 07:10:07;;;;;;;;;;;;;;;2.82;100.00;100767.67;1741768;82;20230;-86
2022/11/14 07:12:51;;;;;;;;;;;;;;;2.87;100.00;100766.89;1741764;81;20517;-84
2022/11/14 07:15:36;;;;;;;;;;;;;;;2.97;100.00;100776.59;1740794;81;20496;-84
2022/11/14 07:18:21;;;;;;;;;;;;;;;3.11;100.00;100775.94;1739930;81;21235;-87
2022/11/14 07:21:07;;;;;;;;;;;;;;;3.23;100.00;100774.85;1739780;82;20171;-77
2022/11/14 07:23:51;;;;;;;;;;;;;;;3.43;100.00;100776.86;1718508;82;20206;-79
2022/11/14 07:26:37;;;;;;;;;;;;;;;3.65;100.00;100785.87;1741716;82;20214;-87
2022/11/14 07:29:22;;;;;;;;;;;;;;;3.85;100.00;100789.63;1741197;82;20231;-86
2022/11/14 07:32:06;;;;;;;;;;;;;;;4.01;100.00;100788.52;1740434;82;21135;-87
2022/11/14 07:34:51;;;;;;;;;;;;;;;4.17;100.00;100781.75;1739897;82;20179;-85
2022/11/14 07:37:36;;;;;;;;;;;;;;;4.37;100.00;100781.98;1739891;82;20229;-83
2022/11/14 07:40:21;;;;;;;;;;;;;;;4.57;100.00;100783.50;1740154;82;20190;-81
2022/11/14 07:43:05;;;;;;;;;;;;;;;4.78;100.00;100778.50;1740132;82;20466;-85
2022/11/14 07:45:50;;;;;;;;;;;;;;;4.99;100.00;100776.94;1740641;82;21235;-83
2022/11/14 07:48:35;;;;;;;;;;;;;;;5.16;100.00;100770.14;1718472;82;20339;-85
2022/11/14 07:51:20;;;;;;;;;;;;;;;5.36;100.00;100772.00;1720612;82;20211;-84
2022/11/14 07:54:04;;;;;;;;;;;;;;;5.55;100.00;100771.27;1742692;82;20482;-83
2022/11/14 07:56:50;;;;;;;;;;;;;;;5.69;100.00;100765.25;1725697;82;20269;-85
2022/11/14 07:59:34;;;;;;;;;;;;;;;5.87;100.00;100761.43;1744899;82;21142;-86
2022/11/14 08:02:19;;;;;;;;;;;;;;;6.06;100.00;100756.31;1744904;82;20140;-83
2022/11/14 08:05:05;;;;;;;;;;;;;;;6.23;100.00;100757.23;1744743;82;20136;-84
2022/11/14 08:07:51;;;;;;;;;;;;;;;6.36;100.00;100757.29;1744679;82;20199;-85
2022/11/14 08:10:37;;;;;;;;;;;;;;;6.46;100.00;100745.98;1745185;82;20501;-82
2022/11/14 08:13:22;;;;;;;;;;;;;;;6.61;100.00;100742.08;1745170;81;21112;-83
2022/11/14 08:16:07;;;;;;;;;;;;;;;6.73;100.00;100735.98;1740744;82;20198;-85
2022/11/14 08:18:52;;;;;;;;;;;;;;;6.84;100.00;100736.88;1744134;81;20175;-88
2022/11/14 08:21:37;;;;;;;;;;;;;;;6.94;99.92;100742.95;1744882;82;20175;-80
2022/11/14 08:24:22;;;;;;;;;;;;;;;7.05;98.69;100741.22;1744928;81;20199;-83
2022/11/14 08:27:07;;;;;;;;;;;;;;;7.17;98.12;100735.09;1744765;82;21117;-80
2022/11/14 08:29:51;;;;;;;;;;;;;;;7.29;95.84;100739.44;1743399;80;20430;-84
2022/11/14 08:32:38;;;;;;;;;;;;;;;7.36;94.36;100738.58;1705458;82;20228;-81
2022/11/14 08:35:24;;;;;;;;;;;;;;;7.44;92.88;100739.41;1704468;83;20197;-85
2022/11/14 08:38:09;;;;;;;;;;;;;;;7.55;92.21;100743.78;1696907;83;20255;-81
2022/11/14 08:40:59;;;;;;;;;;;;;;;7.66;90.12;100734.56;1703690;84;21449;-84
2022/11/14 08:43:44;;;;;;;;;;;;;;;7.74;89.46;100740.66;1704821;83;20232;-88
2022/11/14 08:46:28;;;;;;;;;;;;;;;7.81;87.99;100739.30;1688126;84;20581;-83
2022/11/14 08:49:13;;;;;;;;;;;;;;;7.92;87.38;100743.66;1683893;84;20708;-82
2022/11/14 08:51:59;;;;;;;;;;;;;;;8.00;86.46;100741.84;1693644;83;20247;-84
2022/11/14 08:54:43;;;;;;;;;;;;;;;8.10;85.96;100738.34;1714023;83;21126;-79
2022/11/14 08:57:29;;;;;;;;;;;;;;;8.24;86.01;100737.36;1714127;83;20211;-90
2022/11/14 09:00:15;;;;;;;;;;;;;;;8.37;85.69;100739.94;1714003;83;20173;-83
2022/11/14 09:02:59;;;;;;;;;;;;;;;8.42;83.41;100734.63;1686238;83;20175;-81
2022/11/14 09:05:51;;;;;;;;;;;;;;;8.43;81.90;100739.05;1708455;83;20251;-83
2022/11/14 09:08:36;;;;;;;;;;;;;;;8.43;81.53;100728.55;1706456;83;21563;-81
2022/11/14 09:11:20;;;;;;;;;;;;;;;8.44;80.14;100726.80;1709420;82;20199;-81
2022/11/14 09:14:06;;;;;;;;;;;;;;;8.44;80.33;100722.44;1710505;83;20239;-84
2022/11/14 09:16:53;;;;;;;;;;;;;;;8.48;79.80;100721.52;1695059;83;20514;-83
2022/11/14 09:19:37;;;;;;;;;;;;;;;8.57;79.91;100717.10;1714199;82;20232;-82
2022/11/14 09:22:22;;;;;;;;;;;;;;;8.54;80.77;100718.01;1709508;83;21137;-82
2022/11/14 09:25:09;;;;;;;;;;;;;;;8.53;80.23;100714.49;1714368;82;20224;-81
2022/11/14 09:27:54;;;;;;;;;;;;;;;8.59;79.73;100710.98;1714473;83;20524;-87
2022/11/14 09:30:40;;;;;;;;;;;;;;;8.70;78.88;100712.20;1714133;83;20542;-82
2022/11/14 09:33:25;;;;;;;;;;;;;;;8.68;79.22;100714.83;1714663;82;20251;-85
2022/11/14 09:36:14;;;;;;;;;;;;;;;8.62;79.12;100708.30;1701268;83;22428;-86
2022/11/14 09:38:57;;;;;;;;;;;;;;;8.49;79.55;100711.48;1714082;83;20616;-86
2022/11/14 09:42:11;;;;;;;;;;;;;;;8.44;79.70;100704.08;1713596;83;20224;-89
2022/11/14 09:45:01;;;;;;;;;;;;;;;8.49;79.95;100702.30;1696381;82;20160;-86
2022/11/14 09:47:52;;;;;;;;;;;;;;;8.51;80.50;100704.91;1703996;81;20495;-85
2022/11/14 09:50:41;;;;;;;;;;;;;;;8.54;79.93;100703.58;1688479;84;21117;-85
2022/11/14 09:53:35;;;;;;;;;;;;;;;8.60;79.62;100701.34;1680287;84;20135;-85
2022/11/14 09:56:23;;;;;;;;;;;;;;;8.54;79.74;100703.13;1680027;84;20192;-85
2022/11/14 09:59:10;;;;;;;;;;;;;;;8.52;79.60;100698.34;1690061;83;20359;-85
2022/11/14 10:02:21;;;;;;;;;;;;;;;8.55;78.65;100690.87;1673280;85;20235;-81
2022/11/14 10:05:18;;;;;;;;;;;;;;;8.53;78.82;100696.58;1701832;84;21115;-84
2022/11/14 10:08:12;;;;;;;;;;;;;;;8.49;79.91;100687.87;1699441;83;20268;-81
2022/11/14 10:11:07;;;;;;;;;;;;;;;8.61;80.58;100692.57;1673301;85;20235;-81
2022/11/14 10:14:06;;;;;;;;;;;;;;;8.79;79.70;100687.17;1687682;84;20252;-81
2022/11/14 10:17:00;;;;;;;;;;;;;;;8.85;78.15;100684.96;1682797;84;20796;-83
2022/11/14 10:19:58;;;;;;;;;;;;;;;8.93;78.23;100683.14;1694394;84;22402;-80
2022/11/14 10:23:06;;;;;;;;;;;;;;;9.13;77.96;100680.33;1700442;84;20228;-83
2022/11/14 10:26:25;;;;;;;;;;;;;;;9.32;77.82;100675.75;1699070;84;20276;-79
2022/11/14 10:29:43;;;;;;;;;;;;;;;9.44;76.74;100673.42;1671850;84;20568;-85
2022/11/14 10:32:49;;;;;;;;;;;;;;;9.59;76.35;100676.33;1704689;83;20197;-86
2022/11/14 10:35:38;;;;;;;;;;;;;;;9.70;74.71;100682.75;1700712;82;21098;-82
2022/11/14 10:38:27;;;;;;;;;;;;;;;9.70;73.91;100669.61;1713278;83;20197;-83
2022/11/14 10:41:11;;;;;;;;;;;;;;;9.70;73.02;100673.55;1714854;83;20211;-87
2022/11/14 10:43:56;;;;;;;;;;;;;;;9.67;71.67;100666.14;1714200;83;20196;-87
2022/11/14 10:46:45;;;;;;;;;;;;;;;9.71;72.06;100667.42;1702681;83;20239;-84
2022/11/14 10:49:31;;;;;;;;;;;;;;;9.84;71.12;100667.69;1724330;83;22468;-84
2022/11/14 10:52:17;;;;;;;;;;;;;;;9.91;68.88;100665.39;1730626;82;20660;-86
2022/11/14 10:55:15;;;;;;;;;;;;;;;10.04;70.71;100663.02;1730077;82;20227;-85
2022/11/14 10:58:00;;;;;;;;;;;;;;;10.49;70.82;100656.25;1711967;83;20234;-87
2022/11/14 11:00:46;;;;;;;;;;;;;;;11.14;69.32;100653.38;1729897;82;20442;-88
2022/11/14 11:03:42;;;;;;;;;;;;;;;11.94;67.60;100652.25;1728860;82;21240;-85
2022/11/14 11:06:27;;;;;;;;;;;;;;;12.72;66.49;100645.56;1730133;83;20376;-80
2022/11/14 11:12:44;;;;;;;;;;;;;;;14.31;58.42;100647.23;1726736;82;20290;-86
2022/11/14 11:15:30;;;;;;;;;;;;;;;14.85;57.33;100650.32;1721710;83;20242;-79
2022/11/14 11:18:35;;;;;;;;;;;;;;;15.58;55.18;100649.95;1711561;81;20211;-79
2022/11/14 11:21:22;;;;;;;;;;;;;;;15.74;49.90;100646.72;1679975;83;20593;-80
2022/11/14 11:24:07;;;;;;;;;;;;;;;15.79;49.81;100647.44;1693464;83;20435;-86
2022/11/14 11:27:21;;;;;;;;;;;;;;;16.17;49.30;100647.72;1720169;83;20153;-84
2022/11/14 11:30:21;;;;;;;;;;;;;;;16.62;47.31;100641.47;1686892;84;20639;-81
2022/11/14 11:33:22;;;;;;;;;;;;;;;17.07;46.68;100637.81;1700203;84;21034;-80
2022/11/14 11:36:14;;;;;;;;;;;;;;;17.58;45.18;100630.69;1636142;87;20229;-80
2022/11/14 11:38:59;;;;;;;;;;;;;;;17.93;43.99;100622.89;1698013;83;20269;-85
2022/11/14 11:41:45;;;;;;;;;;;;;;;18.36;42.46;100620.34;1685528;83;20680;-79
2022/11/14 11:44:39;;;;;;;;;;;;;;;18.44;42.39;100619.98;1695228;84;20139;-79
2022/11/14 11:47:24;;;;;;;;;;;;;;;18.72;40.43;100623.91;1704518;84;21140;-85
2022/11/14 11:50:12;;;;;;;;;;;;;;;18.96;41.15;100623.62;1700188;84;20221;-86
2022/11/14 11:53:16;;;;;;;;;;;;;;;19.66;40.78;100626.52;1676159;84;20259;-85
2022/11/14 11:56:08;;;;;;;;;;;;;;;20.32;37.93;100620.64;1693968;84;20263;-84
2022/11/14 11:58:56;;;;;;;;;;;;;;;20.38;37.42;100619.45;1702731;84;20277;-85
2022/11/14 12:01:41;;;;;;;;;;;;;;;20.63;36.89;100620.25;1702760;84;21809;-85
2022/11/14 12:04:26;;;;;;;;;;;;;;;20.74;36.27;100627.13;1702023;84;20163;-81
2022/11/14 12:07:13;;;;;;;;;;;;;;;20.86;36.15;100620.67;1692998;84;20238;-83
2022/11/14 12:09:58;;;;;;;;;;;;;;;21.00;34.73;100618.50;1702685;84;20285;-79
2022/11/14 12:13:03;;;;;;;;;;;;;;;20.74;35.64;100615.10;1702097;84;20170;-84
2022/11/14 12:15:56;;;;;;;;;;;;;;;21.08;35.82;100618.44;1648063;87;20561;-82
2022/11/14 12:19:02;;;;;;;;;;;;;;;21.45;35.03;100613.49;1699116;83;20191;-83
2022/11/14 12:22:06;;;;;;;;;;;;;;;21.40;34.09;100606.23;1693201;84;20182;-93
2022/11/14 12:25:09;;;;;;;;;;;;;;;21.21;34.24;100606.48;1651089;86;20529;-82
2022/11/14 12:28:10;;;;;;;;;;;;;;;21.18;33.89;100608.50;1704218;84;20292;-81
2022/11/14 12:30:58;;;;;;;;;;;;;;;21.32;33.66;100599.15;1705167;83;21226;-80
2022/11/14 12:33:46;;;;;;;;;;;;;;;21.55;34.20;100603.56;1701480;84;20197;-82
2022/11/14 12:36:32;;;;;;;;;;;;;;;21.92;33.62;100602.55;1703289;84;20502;-82
2022/11/14 12:39:25;;;;;;;;;;;;;;;22.06;33.09;100599.34;1706926;83;20233;-83
2022/11/14 12:42:13;;;;;;;;;;;;;;;21.96;32.96;100602.25;1677207;85;20240;-83
2022/11/14 12:44:59;;;;;;;;;;;;;;;21.68;33.09;100602.67;1701561;84;20216;-82
2022/11/14 12:48:05;;;;;;;;;;;;;;;21.45;33.75;100596.55;1705538;84;20292;-86
2022/11/14 12:50:50;;;;;;;;;;;;;;;21.60;32.82;100596.09;1705360;84;20659;-82
2022/11/14 12:53:37;;;;;;;;;;;;;;;21.01;33.12;100590.31;1703225;84;20222;-86
2022/11/14 12:56:31;;;;;;;;;;;;;;;20.86;33.82;100584.56;1704699;84;20209;-84
2022/11/14 12:59:35;;;;;;;;;;;;;;;21.05;34.15;100592.36;1700955;82;21149;-81
2022/11/14 13:02:39;;;;;;;;;;;;;;;20.73;34.43;100596.02;1705341;83;20794;-83
2022/11/14 13:05:52;;;;;;;;;;;;;;;19.86;34.73;100593.89;1708646;83;20222;-83
2022/11/14 13:08:53;;;;;;;;;;;;;;;19.01;35.98;100590.90;1707629;83;20239;-87
2022/11/14 13:21:45;;;;;;;;;;;;;;;18.69;37.67;100600.06;1718885;83;20232;-82
2022/11/14 13:25:01;;;;;;;;;;;;;;;18.97;37.65;100596.02;1716587;83;20204;-82
2022/11/14 13:27:45;;;;;;;;;;;;;;;19.01;37.08;100589.56;1719097;83;20231;-85
2022/11/14 13:30:50;;;;;;;;;;;;;;;18.26;37.57;100586.25;1719436;83;21210;-82
2022/11/14 13:33:44;;;;;;;;;;;;;;;17.66;38.77;100604.59;1714784;83;20238;-81
2022/11/14 13:36:57;;;;;;;;;;;;;;;17.30;39.51;100601.81;1716384;83;20192;-81
2022/11/14 13:39:44;;;;;;;;;;;;;;;17.01;39.89;100601.31;1720301;83;20364;-83
2022/11/14 13:42:33;;;;;;;;;;;;;;;16.40;40.90;100598.99;1700301;83;20839;-82
2022/11/14 13:45:38;;;;;;;;;;;;;;;15.85;41.78;100599.42;1717776;83;21951;-81
2022/11/14 13:48:45;;;;;;;;;;;;;;;15.33;42.67;100614.63;1719155;83;20260;-82
2022/11/14 13:51:30;;;;;;;;;;;;;;;14.84;43.87;100607.98;1717323;83;20205;-80
2022/11/14 13:54:15;;;;;;;;;;;;;;;14.27;44.81;100603.23;1719681;83;20204;-84
2022/11/14 13:57:07;;;;;;;;;;;;;;;13.61;45.79;100608.79;1701886;83;20203;-81
2022/11/14 14:00:01;;;;;;;;;;;;;;;13.06;47.21;100608.55;1713794;83;21678;-82
2022/11/14 14:02:54;;;;;;;;;;;;;;;12.64;48.14;100616.70;1714592;83;20771;-82
2022/11/14 14:06:09;;;;;;;;;;;;;;;12.18;49.35;100623.98;1717855;83;20452;-81
2022/11/14 14:09:19;;;;;;;;;;;;;;;11.78;50.37;100627.48;1726125;81;20304;-86
2022/11/14 14:12:08;;;;;;;;;;;;;;;11.39;51.41;100626.10;1719473;83;20235;-82
2022/11/14 14:15:14;;;;;;;;;;;;;;;11.09;52.67;100623.63;1719600;81;21204;-83
2022/11/14 14:18:25;;;;;;;;;;;;;;;10.84;53.17;100628.47;1714882;83;20479;-84
2022/11/14 14:21:34;;;;;;;;;;;;;;;10.56;54.17;100624.56;1665370;86;20211;-83
2022/11/14 14:24:41;;;;;;;;;;;;;;;10.22;55.00;100629.02;1711037;82;20201;-86
2022/11/14 14:27:52;;;;;;;;;;;;;;;9.96;56.10;100626.76;1708059;83;20177;-83
2022/11/14 14:30:38;;;;;;;;;;;;;;;9.75;56.63;100627.05;1709084;82;21099;-82
2022/11/14 14:33:23;;;;;;;;;;;;;;;9.49;57.41;100633.52;1710198;81;20192;-81
2022/11/14 14:36:16;;;;;;;;;;;;;;;9.28;58.34;100628.95;1707804;83;20153;-83
2022/11/14 14:39:24;;;;;;;;;;;;;;;9.10;59.13;100626.53;1707502;84;20915;-80
2022/11/14 14:42:10;;;;;;;;;;;;;;;8.91;59.84;100631.97;1708031;84;20212;-86
2022/11/14 14:44:55;;;;;;;;;;;;;;;8.72;60.30;100627.34;1705476;84;21579;-84
2022/11/14 14:47:44;;;;;;;;;;;;;;;8.53;61.25;100630.55;1709424;83;20225;-80